Time;durP1;ratioP1;P1;durP2;ratioP2;P2;SDS_P1;SDS_P2;PMS_P1;PMS_P2;Temp;Humidity;BMP_temperature;BMP_pressure;BME280_temperature;BME280_humidity;BME280_pressure;Samples;Min_cycle;Max_cycle;Signal;HPM_P1;HPM_P2
2022/11/14 00:02:16;;;;;;;28.25;17.15;;;3.70;99.90;;;;;;4656416;28;9999944;-73
2022/11/14 00:04:46;;;;;;;29.13;16.98;;;3.60;99.90;;;;;;5009208;28;20053;-73
2022/11/14 00:07:12;;;;;;;28.05;17.63;;;3.60;99.90;;;;;;5007624;28;20321;-73
2022/11/14 00:09:41;;;;;;;26.17;17.20;;;3.60;99.90;;;;;;5010461;28;20048;-73
2022/11/14 00:12:11;;;;;;;26.92;16.75;;;3.60;99.90;;;;;;5007855;28;20037;-73
2022/11/14 00:14:37;;;;;;;29.75;16.90;;;3.60;99.90;;;;;;5008713;28;20052;-73
2022/11/14 00:17:04;;;;;;;25.33;15.35;;;3.50;99.90;;;;;;5013585;28;20567;-73
2022/11/14 00:19:32;;;;;;;24.58;15.52;;;3.50;99.90;;;;;;5015410;28;20025;-73
2022/11/14 00:21:59;;;;;;;27.92;16.13;;;3.50;99.90;;;;;;5020022;28;20048;-73
2022/11/14 00:24:24;;;;;;;27.15;16.45;;;3.40;99.90;;;;;;5006671;28;20497;-73
2022/11/14 00:26:50;;;;;;;23.38;14.70;;;3.40;99.90;;;;;;5001081;28;20044;-73
2022/11/14 00:29:16;;;;;;;25.90;15.68;;;3.40;99.90;;;;;;5002452;28;20029;-74
2022/11/14 00:31:41;;;;;;;24.65;14.75;;;3.40;99.90;;;;;;5015466;28;20070;-74
2022/11/14 00:34:07;;;;;;;24.27;15.05;;;3.40;99.90;;;;;;5014731;28;20120;-74
2022/11/14 00:36:33;;;;;;;26.02;15.48;;;3.40;99.90;;;;;;5016948;28;20049;-73
2022/11/14 00:38:59;;;;;;;24.48;15.23;;;3.30;99.90;;;;;;5019097;28;20560;-73
2022/11/14 00:41:25;;;;;;;25.00;15.90;;;3.30;99.90;;;;;;5022231;28;20025;-73
2022/11/14 00:43:50;;;;;;;24.05;14.80;;;3.20;99.90;;;;;;5018152;28;20481;-73
2022/11/14 00:46:16;;;;;;;26.55;16.23;;;3.20;99.90;;;;;;5020305;28;20473;-73
2022/11/14 00:48:42;;;;;;;25.23;15.30;;;3.20;99.90;;;;;;5000545;28;20055;-73
2022/11/14 00:51:08;;;;;;;26.50;15.55;;;3.10;99.90;;;;;;4998422;28;20029;-73
2022/11/14 00:53:34;;;;;;;27.23;16.98;;;3.10;99.90;;;;;;5000676;28;20031;-73
2022/11/14 00:56:00;;;;;;;27.20;16.60;;;3.20;99.90;;;;;;4997184;28;20543;-73
2022/11/14 00:58:25;;;;;;;27.13;16.63;;;3.10;99.90;;;;;;5004868;28;20029;-73
2022/11/14 01:00:51;;;;;;;27.50;16.50;;;3.10;99.90;;;;;;5010847;28;20045;-73
2022/11/14 01:03:17;;;;;;;27.95;17.80;;;3.10;99.90;;;;;;5002209;28;20045;-73
2022/11/14 01:05:45;;;;;;;30.42;18.02;;;3.20;99.90;;;;;;5001616;28;20025;-73
2022/11/14 01:08:12;;;;;;;30.52;18.15;;;3.20;99.90;;;;;;4999588;28;20033;-73
2022/11/14 01:10:43;;;;;;;33.03;19.13;;;3.20;99.90;;;;;;5009168;28;20025;-73
2022/11/14 01:13:10;;;;;;;29.48;17.95;;;3.20;99.90;;;;;;5004900;28;20033;-73
2022/11/14 01:15:54;;;;;;;29.25;17.95;;;3.20;99.90;;;;;;5013230;28;20751;-73
2022/11/14 01:18:20;;;;;;;27.85;17.40;;;3.20;99.90;;;;;;4999906;28;20041;-73
2022/11/14 01:20:47;;;;;;;30.45;17.65;;;3.30;99.90;;;;;;5018668;28;20072;-73
2022/11/14 01:23:15;;;;;;;29.10;17.17;;;3.30;99.90;;;;;;5018211;28;20121;-73
2022/11/14 01:25:41;;;;;;;27.77;17.10;;;3.20;99.90;;;;;;5009927;28;20022;-73
2022/11/14 01:28:09;;;;;;;30.35;18.30;;;3.20;99.90;;;;;;5007283;28;20657;-73
2022/11/14 01:30:35;;;;;;;30.02;18.05;;;3.20;99.90;;;;;;5012580;28;20053;-73
2022/11/14 01:33:03;;;;;;;32.22;18.70;;;3.30;99.90;;;;;;5009197;28;20053;-73
2022/11/14 01:35:30;;;;;;;33.35;18.85;;;3.30;99.90;;;;;;5008147;28;20556;-73
2022/11/14 01:37:56;;;;;;;31.88;18.58;;;3.30;99.90;;;;;;4995464;28;20044;-73
2022/11/14 01:40:22;;;;;;;31.40;18.35;;;3.40;99.90;;;;;;5003163;28;20505;-73
2022/11/14 01:43:15;;;;;;;29.98;18.20;;;3.40;99.90;;;;;;5005540;28;20160;-73
2022/11/14 01:45:41;;;;;;;29.92;18.38;;;3.20;99.90;;;;;;5009979;28;20068;-73
2022/11/14 01:48:31;;;;;;;31.40;18.85;;;3.10;99.90;;;;;;5002100;28;20400;-73
2022/11/14 01:51:26;;;;;;;31.30;19.05;;;3.10;99.90;;;;;;4998585;28;20112;-73
2022/11/14 01:53:54;;;;;;;29.88;17.83;;;3.10;99.90;;;;;;4998083;28;20041;-73
2022/11/14 01:56:49;;;;;;;29.20;17.38;;;3.00;99.90;;;;;;4998414;28;20034;-73
2022/11/14 01:59:20;;;;;;;33.20;18.98;;;3.00;99.90;;;;;;4998082;28;20042;-73
2022/11/14 02:01:48;;;;;;;32.53;19.05;;;3.00;99.90;;;;;;5002018;28;20079;-73
2022/11/14 02:04:19;;;;;;;34.65;19.75;;;3.10;99.90;;;;;;5014831;28;21216;-73
2022/11/14 02:06:46;;;;;;;37.72;21.33;;;3.20;99.90;;;;;;5003446;28;20033;-72
2022/11/14 02:09:11;;;;;;;35.05;20.52;;;3.20;99.90;;;;;;5002497;28;20106;-72
2022/11/14 02:11:41;;;;;;;36.22;21.00;;;3.30;99.90;;;;;;5006379;28;20167;-73
2022/11/14 02:14:07;;;;;;;33.47;20.13;;;3.30;99.90;;;;;;5017525;28;20033;-72
2022/11/14 02:16:33;;;;;;;31.60;19.75;;;3.30;99.90;;;;;;4999557;28;20064;-72
2022/11/14 02:18:59;;;;;;;34.22;19.75;;;3.40;99.90;;;;;;5006355;28;20116;-73
2022/11/14 02:21:24;;;;;;;35.05;19.90;;;3.40;99.90;;;;;;5006065;28;20393;-72
2022/11/14 02:23:50;;;;;;;31.23;19.67;;;3.40;99.90;;;;;;5018379;28;20067;-73
2022/11/14 02:26:20;;;;;;;32.53;19.95;;;3.40;99.90;;;;;;5011287;28;20026;-73
2022/11/14 02:28:46;;;;;;;32.05;19.35;;;3.30;99.90;;;;;;5010978;28;20083;-73
2022/11/14 02:31:13;;;;;;;34.47;20.00;;;3.40;99.90;;;;;;5011870;28;20042;-73
2022/11/14 02:33:39;;;;;;;37.15;20.73;;;3.40;99.90;;;;;;5013827;28;20057;-73
2022/11/14 02:36:05;;;;;;;35.50;20.42;;;3.40;99.90;;;;;;5015678;28;20034;-73
2022/11/14 02:38:31;;;;;;;38.00;21.23;;;3.40;99.90;;;;;;5011980;28;20026;-73
2022/11/14 02:40:59;;;;;;;38.38;21.25;;;3.40;99.90;;;;;;5012419;28;20120;-73
2022/11/14 02:43:25;;;;;;;37.67;22.05;;;3.40;99.90;;;;;;5016255;28;20029;-73
2022/11/14 02:45:51;;;;;;;38.28;22.08;;;3.50;99.90;;;;;;5009783;28;20523;-72
2022/11/14 02:48:16;;;;;;;36.80;20.83;;;3.40;99.90;;;;;;5016545;28;20025;-73
2022/11/14 02:50:42;;;;;;;36.35;21.60;;;3.50;99.90;;;;;;5007022;28;22366;-73
2022/11/14 02:53:08;;;;;;;37.33;21.35;;;3.50;99.90;;;;;;5007872;28;20096;-73
2022/11/14 02:55:33;;;;;;;37.63;21.20;;;3.50;99.90;;;;;;5009873;28;20036;-73
2022/11/14 02:57:59;;;;;;;37.83;22.15;;;3.50;99.90;;;;;;5005952;28;20128;-73
2022/11/14 03:00:24;;;;;;;39.33;22.13;;;3.50;99.90;;;;;;4996532;28;20022;-72
2022/11/14 03:02:52;;;;;;;40.42;22.98;;;3.50;99.90;;;;;;5010437;28;20115;-73
2022/11/14 03:05:18;;;;;;;40.70;22.77;;;3.40;99.90;;;;;;5017402;28;20132;-73
2022/11/14 03:07:44;;;;;;;39.47;22.00;;;3.50;99.90;;;;;;5017531;28;20417;-73
2022/11/14 03:10:10;;;;;;;39.83;22.75;;;3.40;99.90;;;;;;5017996;28;20764;-73
2022/11/14 03:12:36;;;;;;;40.22;23.73;;;3.40;99.90;;;;;;5015424;28;20029;-73
2022/11/14 03:15:03;;;;;;;38.83;22.00;;;3.40;99.90;;;;;;5018127;28;20038;-73
2022/11/14 03:17:33;;;;;;;36.53;21.60;;;3.40;99.90;;;;;;5016647;28;20029;-73
2022/11/14 03:19:59;;;;;;;35.40;20.95;;;3.40;99.90;;;;;;5018192;28;20409;-72
2022/11/14 03:22:25;;;;;;;36.05;20.63;;;3.40;99.90;;;;;;5011581;28;20025;-73
2022/11/14 03:24:51;;;;;;;31.50;19.08;;;3.50;99.90;;;;;;5017243;28;20092;-73
2022/11/14 03:27:17;;;;;;;29.88;18.42;;;3.50;99.90;;;;;;5014273;28;20313;-73
2022/11/14 03:29:42;;;;;;;30.65;17.88;;;3.40;99.90;;;;;;5018203;28;20036;-72
2022/11/14 03:32:08;;;;;;;28.15;17.02;;;3.20;99.90;;;;;;5013854;28;20025;-73
2022/11/14 03:34:33;;;;;;;26.85;16.92;;;3.10;99.90;;;;;;5012606;28;20022;-73
2022/11/14 03:36:59;;;;;;;28.85;16.33;;;3.00;99.90;;;;;;5016823;28;20068;-72
2022/11/14 03:39:26;;;;;;;35.50;19.42;;;2.90;99.90;;;;;;5015581;28;20040;-72
2022/11/14 03:41:51;;;;;;;39.17;22.25;;;3.00;99.90;;;;;;5011718;28;20500;-73
2022/11/14 03:44:17;;;;;;;39.50;21.30;;;3.10;99.90;;;;;;5013641;28;20025;-73
2022/11/14 03:46:42;;;;;;;35.83;20.65;;;3.20;99.90;;;;;;5015800;28;20021;-73
2022/11/14 03:49:08;;;;;;;33.80;20.05;;;3.20;99.90;;;;;;5011697;28;20481;-73
2022/11/14 03:51:34;;;;;;;34.35;19.58;;;3.20;99.90;;;;;;5013612;28;20125;-73
2022/11/14 03:54:00;;;;;;;37.13;20.45;;;3.30;99.90;;;;;;5014297;28;20030;-73
2022/11/14 03:56:26;;;;;;;34.20;20.13;;;3.30;99.90;;;;;;5012467;28;20385;-73
2022/11/14 03:58:51;;;;;;;31.90;19.08;;;3.40;99.90;;;;;;5009559;28;20033;-73
2022/11/14 04:01:17;;;;;;;34.58;19.17;;;3.40;99.90;;;;;;5010065;28;20030;-73
2022/11/14 04:03:43;;;;;;;31.52;18.00;;;3.40;99.90;;;;;;5011818;28;20505;-73
2022/11/14 04:06:09;;;;;;;30.27;17.75;;;3.40;99.90;;;;;;5015933;28;20056;-73
2022/11/14 04:08:34;;;;;;;33.65;19.48;;;3.30;99.90;;;;;;5020306;28;20075;-73
2022/11/14 04:11:00;;;;;;;30.52;19.08;;;3.20;99.90;;;;;;5020101;28;20034;-73
2022/11/14 04:13:25;;;;;;;33.03;18.33;;;3.20;99.90;;;;;;5011065;28;20029;-73
2022/11/14 04:15:56;;;;;;;33.90;18.60;;;3.10;99.90;;;;;;5019539;28;20452;-72
2022/11/14 04:18:22;;;;;;;33.90;19.92;;;3.10;99.90;;;;;;5012962;28;20030;-72
2022/11/14 04:20:48;;;;;;;33.10;18.92;;;3.20;99.90;;;;;;5018966;28;20030;-73
2022/11/14 04:23:14;;;;;;;38.28;20.88;;;3.20;99.90;;;;;;5017432;28;20052;-73
2022/11/14 04:25:39;;;;;;;41.97;24.02;;;3.30;99.90;;;;;;5013361;28;20029;-73
2022/11/14 04:28:05;;;;;;;42.50;24.33;;;3.30;99.90;;;;;;5012805;28;20033;-73
2022/11/14 04:30:30;;;;;;;49.45;25.00;;;3.40;99.90;;;;;;5016276;28;20046;-73
2022/11/14 04:32:56;;;;;;;44.47;24.77;;;3.50;99.90;;;;;;5019493;28;20061;-73
2022/11/14 04:35:22;;;;;;;106.40;25.85;;;3.50;99.90;;;;;;5021225;28;20034;-72
2022/11/14 04:37:47;;;;;;;72.55;22.85;;;3.50;99.90;;;;;;5017105;28;20085;-73
2022/11/14 04:40:13;;;;;;;52.90;22.95;;;3.50;99.90;;;;;;5017075;28;20120;-73
2022/11/14 04:42:39;;;;;;;42.97;23.70;;;3.50;99.90;;;;;;5012468;28;20112;-73
2022/11/14 04:45:05;;;;;;;46.58;23.45;;;3.50;99.90;;;;;;5016234;28;20477;-73
2022/11/14 04:47:30;;;;;;;42.72;23.67;;;3.50;99.90;;;;;;5021763;28;20418;-73
2022/11/14 04:49:56;;;;;;;39.28;21.80;;;3.50;99.90;;;;;;5012090;28;20084;-72
2022/11/14 04:52:22;;;;;;;40.05;22.73;;;3.50;99.90;;;;;;5021516;28;20025;-73
2022/11/14 04:54:47;;;;;;;41.00;22.52;;;3.40;99.90;;;;;;5015719;28;20723;-72
2022/11/14 04:57:13;;;;;;;35.53;21.35;;;3.40;99.90;;;;;;5012694;28;20041;-72
2022/11/14 04:59:38;;;;;;;41.55;21.40;;;3.40;99.90;;;;;;5016176;28;20046;-73
2022/11/14 05:02:04;;;;;;;36.70;21.60;;;3.30;99.90;;;;;;5013661;28;20683;-73
2022/11/14 05:04:30;;;;;;;37.70;22.00;;;3.30;99.90;;;;;;5014991;28;20029;-72
2022/11/14 05:06:55;;;;;;;36.60;21.02;;;3.30;99.90;;;;;;5005494;28;20445;-73
2022/11/14 05:09:21;;;;;;;34.42;18.70;;;3.30;99.90;;;;;;5008318;28;20034;-72
2022/11/14 05:11:46;;;;;;;37.33;18.75;;;3.20;99.90;;;;;;5012697;28;20029;-72
2022/11/14 05:14:12;;;;;;;28.20;17.92;;;3.20;99.90;;;;;;5014409;28;20037;-72
2022/11/14 05:16:38;;;;;;;29.83;18.27;;;3.10;99.90;;;;;;5016622;28;20037;-73
2022/11/14 05:19:03;;;;;;;28.77;17.60;;;3.00;99.90;;;;;;5017608;28;20029;-73
2022/11/14 05:21:29;;;;;;;29.08;17.45;;;2.90;99.90;;;;;;5019930;28;20108;-73
2022/11/14 05:23:55;;;;;;;26.17;17.65;;;2.90;99.90;;;;;;5020971;28;20045;-73
2022/11/14 05:26:20;;;;;;;31.88;19.35;;;2.80;99.90;;;;;;5017752;28;20030;-73
2022/11/14 05:28:46;;;;;;;35.72;20.58;;;2.80;99.90;;;;;;5015943;28;20365;-72
2022/11/14 05:31:16;;;;;;;36.20;20.75;;;2.80;99.90;;;;;;5015643;28;20038;-73
2022/11/14 05:33:43;;;;;;;39.70;22.25;;;2.90;99.90;;;;;;5014077;28;20107;-73
2022/11/14 05:36:12;;;;;;;34.85;21.10;;;2.90;99.90;;;;;;5017150;28;20429;-72
2022/11/14 05:38:38;;;;;;;37.50;21.77;;;2.90;99.90;;;;;;5015732;28;20175;-73
2022/11/14 05:41:08;;;;;;;35.63;20.55;;;3.00;99.90;;;;;;5010449;28;20382;-72
2022/11/14 05:43:33;;;;;;;38.88;21.45;;;3.10;99.90;;;;;;5011580;28;20484;-72
2022/11/14 05:46:04;;;;;;;36.53;21.23;;;3.10;99.90;;;;;;5018655;28;20215;-73
2022/11/14 05:48:31;;;;;;;35.85;21.00;;;3.10;99.90;;;;;;5011990;28;20030;-73
2022/11/14 05:50:58;;;;;;;37.72;21.42;;;3.10;99.90;;;;;;5016489;28;20457;-73
2022/11/14 05:53:24;;;;;;;33.05;19.95;;;3.10;99.90;;;;;;5014300;28;20029;-72
2022/11/14 05:55:50;;;;;;;33.38;20.00;;;3.10;99.90;;;;;;5012289;28;20033;-72
2022/11/14 05:58:16;;;;;;;35.45;19.80;;;3.00;99.90;;;;;;5014197;28;20030;-72
2022/11/14 06:00:41;;;;;;;33.90;19.65;;;3.00;99.90;;;;;;5016626;28;20041;-72
2022/11/14 06:03:07;;;;;;;32.47;19.08;;;3.00;99.90;;;;;;5014778;28;20026;-73
2022/11/14 06:05:34;;;;;;;28.98;17.38;;;3.00;99.90;;;;;;5010914;28;20022;-72
2022/11/14 06:08:00;;;;;;;30.52;18.25;;;3.00;99.90;;;;;;5017240;28;20041;-73
2022/11/14 06:10:26;;;;;;;28.48;17.52;;;3.00;99.90;;;;;;5016831;28;20021;-73
2022/11/14 06:12:52;;;;;;;24.77;16.60;;;2.90;99.90;;;;;;5011800;28;20032;-73
2022/11/14 06:15:18;;;;;;;21.83;15.05;;;2.80;99.90;;;;;;5014234;28;20033;-72
2022/11/14 06:17:43;;;;;;;28.55;17.85;;;2.60;99.90;;;;;;5013033;28;20393;-73
2022/11/14 06:20:09;;;;;;;31.13;19.20;;;2.50;99.90;;;;;;5012280;28;20033;-72
2022/11/14 06:22:35;;;;;;;31.95;19.02;;;2.60;99.90;;;;;;5010947;28;20034;-73
2022/11/14 06:25:04;;;;;;;30.20;18.25;;;2.70;99.90;;;;;;5008565;28;20062;-73
2022/11/14 06:27:29;;;;;;;32.33;17.88;;;2.70;99.90;;;;;;5012364;28;20033;-73
2022/11/14 06:29:55;;;;;;;29.45;17.30;;;2.70;99.90;;;;;;5010952;28;20034;-72
2022/11/14 06:32:20;;;;;;;31.73;18.27;;;2.70;99.90;;;;;;5006819;28;20386;-73
2022/11/14 06:34:46;;;;;;;32.30;19.17;;;2.60;99.90;;;;;;5010952;28;20433;-73
2022/11/14 06:37:11;;;;;;;34.60;19.10;;;2.50;99.90;;;;;;5006891;28;20018;-73
2022/11/14 06:39:37;;;;;;;29.38;18.20;;;3.10;99.90;;;;;;5016829;28;20021;-73
2022/11/14 06:42:03;;;;;;;29.48;17.10;;;2.40;99.90;;;;;;5020694;28;20066;-73
2022/11/14 06:44:28;;;;;;;27.50;17.15;;;2.40;99.90;;;;;;5010739;28;20029;-73
2022/11/14 06:46:55;;;;;;;29.10;17.65;;;2.40;99.90;;;;;;5007074;28;20044;-73
2022/11/14 06:49:21;;;;;;;34.95;20.02;;;2.30;99.90;;;;;;5005623;28;20034;-72
2022/11/14 06:51:47;;;;;;;33.00;19.13;;;2.20;99.90;;;;;;5010702;28;20074;-70
2022/11/14 06:54:12;;;;;;;32.10;18.63;;;2.20;99.90;;;;;;5017956;28;20524;-70
2022/11/14 06:56:38;;;;;;;37.88;22.10;;;;;;;;;;5009251;28;20049;-70
2022/11/14 06:59:04;;;;;;;37.65;21.98;;;2.10;99.90;;;;;;5013632;28;20037;-70
2022/11/14 07:01:30;;;;;;;37.03;21.13;;;2.00;99.90;;;;;;5006181;28;20772;-70
2022/11/14 07:03:57;;;;;;;34.25;19.48;;;2.00;99.90;;;;;;5003146;28;20026;-70
2022/11/14 07:06:25;;;;;;;33.40;19.02;;;2.00;99.90;;;;;;5004970;28;20026;-70
2022/11/14 07:08:52;;;;;;;34.65;19.35;;;2.00;99.90;;;;;;5001986;28;20033;-70
2022/11/14 07:11:25;;;;;;;32.85;17.85;;;2.00;99.90;;;;;;5010915;28;20018;-70
2022/11/14 07:13:54;;;;;;;22.02;12.50;;;2.00;99.90;;;;;;5017310;28;20045;-73
2022/11/14 07:16:22;;;;;;;32.72;18.27;;;2.10;99.90;;;;;;5017906;28;20167;-73
2022/11/14 07:18:48;;;;;;;30.95;17.83;;;2.10;99.90;;;;;;5015088;28;20033;-72
2022/11/14 07:21:14;;;;;;;28.75;17.35;;;2.30;99.90;;;;;;5008376;28;20026;-72
2022/11/14 07:23:40;;;;;;;27.10;16.65;;;2.40;99.90;;;;;;5006092;28;20506;-73
2022/11/14 07:26:08;;;;;;;24.48;15.05;;;2.50;99.90;;;;;;5004619;28;20161;-73
2022/11/14 07:28:36;;;;;;;28.25;17.20;;;2.60;99.90;;;;;;5003481;28;20105;-73
2022/11/14 07:31:06;;;;;;;30.15;17.85;;;2.60;99.90;;;;;;5018574;28;20128;-73
2022/11/14 07:33:32;;;;;;;29.35;17.08;;;2.60;99.90;;;;;;5013691;28;20038;-73
2022/11/14 07:35:58;;;;;;;24.73;15.73;;;2.60;99.90;;;;;;4989403;28;20121;-73
2022/11/14 07:38:24;;;;;;;26.15;16.02;;;2.50;99.90;;;;;;5008796;28;20703;-73
2022/11/14 07:41:02;;;;;;;27.10;15.82;;;2.50;99.90;;;;;;5004678;28;20514;-73
2022/11/14 07:43:28;;;;;;;28.10;16.70;;;2.50;99.90;;;;;;5000550;28;20060;-73
2022/11/14 07:46:02;;;;;;;31.52;18.48;;;2.50;99.90;;;;;;5010872;28;20453;-73
2022/11/14 07:48:28;;;;;;;28.85;17.27;;;2.70;99.90;;;;;;5013523;28;20039;-73
2022/11/14 07:51:02;;;;;;;24.25;15.55;;;2.80;99.90;;;;;;5010429;28;20026;-73
2022/11/14 07:53:28;;;;;;;25.20;15.93;;;2.80;99.90;;;;;;5016662;28;20033;-73
2022/11/14 07:55:55;;;;;;;28.70;17.67;;;2.90;99.90;;;;;;5013990;28;20034;-73
2022/11/14 07:58:20;;;;;;;29.33;18.30;;;2.90;99.90;;;;;;5013041;28;20053;-73
2022/11/14 08:00:46;;;;;;;30.48;18.73;;;3.00;99.90;;;;;;5016661;28;20528;-73
2022/11/14 08:03:12;;;;;;;31.98;18.92;;;3.10;99.90;;;;;;5014627;28;20037;-72
2022/11/14 08:05:37;;;;;;;29.80;17.98;;;3.20;99.90;;;;;;5008526;28;20033;-72
2022/11/14 08:08:03;;;;;;;28.60;17.83;;;3.30;99.90;;;;;;5016311;28;20052;-72
2022/11/14 08:10:30;;;;;;;30.70;18.27;;;3.40;99.90;;;;;;5014890;28;20107;-72
2022/11/14 08:13:03;;;;;;;30.52;18.15;;;3.40;99.90;;;;;;5016350;28;20062;-73
2022/11/14 08:15:30;;;;;;;28.70;17.45;;;3.50;99.90;;;;;;5003827;28;20037;-73
2022/11/14 08:18:00;;;;;;;30.65;18.45;;;3.60;99.90;;;;;;5015878;28;20560;-72
2022/11/14 08:20:26;;;;;;;33.00;18.80;;;3.70;99.90;;;;;;5012386;28;20033;-72
2022/11/14 08:23:05;;;;;;;33.25;19.45;;;3.80;99.90;;;;;;5011417;28;20038;-72
2022/11/14 08:25:32;;;;;;;30.48;18.98;;;3.90;99.90;;;;;;5007347;28;20091;-72
2022/11/14 08:27:57;;;;;;;32.70;19.80;;;4.00;99.90;;;;;;5019649;28;20052;-73
2022/11/14 08:30:24;;;;;;;30.83;19.20;;;4.10;99.90;;;;;;5015004;28;20042;-72
2022/11/14 08:32:50;;;;;;;29.48;18.65;;;4.20;99.90;;;;;;5012433;28;20083;-72
2022/11/14 08:35:16;;;;;;;30.75;18.33;;;4.30;99.90;;;;;;5010134;28;20393;-72
2022/11/14 08:37:41;;;;;;;32.85;20.27;;;4.40;99.90;;;;;;5014354;28;20508;-72
2022/11/14 08:40:07;;;;;;;35.38;22.08;;;4.40;99.90;;;;;;5014638;28;20092;-72
2022/11/14 08:42:33;;;;;;;37.70;22.55;;;4.40;99.90;;;;;;5005986;28;20361;-72
2022/11/14 08:44:59;;;;;;;38.53;23.33;;;4.30;99.90;;;;;;5010987;28;20703;-73
2022/11/14 08:47:24;;;;;;;36.53;21.65;;;4.20;99.90;;;;;;5013343;28;20057;-73
2022/11/14 08:49:50;;;;;;;39.55;23.20;;;4.30;99.90;;;;;;5014075;28;20022;-72
2022/11/14 08:52:15;;;;;;;36.63;22.55;;;4.30;99.90;;;;;;5012806;28;20032;-73
2022/11/14 08:54:41;;;;;;;36.83;21.70;;;4.30;99.90;;;;;;5019254;28;20258;-73
2022/11/14 08:57:07;;;;;;;34.25;21.10;;;4.40;99.90;;;;;;5013105;28;20033;-73
2022/11/14 08:59:33;;;;;;;36.95;21.80;;;4.40;99.90;;;;;;5022002;28;20025;-73
2022/11/14 09:01:58;;;;;;;39.17;22.88;;;4.50;99.90;;;;;;5024554;28;20017;-73
2022/11/14 09:04:24;;;;;;;34.28;20.92;;;4.60;99.90;;;;;;5017796;28;20029;-72
2022/11/14 09:06:50;;;;;;;34.67;21.08;;;4.70;99.90;;;;;;5009818;28;20021;-73
2022/11/14 09:09:16;;;;;;;35.95;21.48;;;4.80;99.90;;;;;;5015624;28;20562;-73
2022/11/14 09:11:42;;;;;;;35.78;22.45;;;4.90;99.90;;;;;;5018568;28;20025;-73
2022/11/14 09:14:08;;;;;;;32.33;21.25;;;5.00;99.90;;;;;;5009936;28;20045;-72
2022/11/14 09:16:34;;;;;;;35.50;21.48;;;5.10;99.90;;;;;;5013336;28;20029;-73
2022/11/14 09:18:59;;;;;;;34.25;21.35;;;5.10;99.90;;;;;;5015934;28;20026;-73
2022/11/14 09:21:25;;;;;;;36.38;21.92;;;5.20;99.90;;;;;;5013667;28;20030;-72
2022/11/14 09:23:51;;;;;;;31.95;20.45;;;5.20;99.90;;;;;;5011003;28;20018;-73
2022/11/14 09:26:17;;;;;;;33.28;20.95;;;5.30;99.90;;;;;;5010966;28;20029;-72
2022/11/14 09:28:44;;;;;;;33.08;19.65;;;5.30;99.90;;;;;;5010356;28;20115;-72
2022/11/14 09:31:12;;;;;;;35.47;20.05;;;5.40;99.90;;;;;;5018454;28;20462;-73
2022/11/14 09:33:38;;;;;;;32.63;19.80;;;5.40;99.90;;;;;;5015970;28;20033;-72
2022/11/14 09:36:06;;;;;;;32.78;20.15;;;5.50;99.90;;;;;;5016541;28;20040;-73
2022/11/14 09:38:33;;;;;;;31.10;19.80;;;5.60;99.90;;;;;;5013155;28;20041;-73
2022/11/14 09:41:01;;;;;;;30.13;19.40;;;5.60;99.90;;;;;;5014303;28;20037;-73
2022/11/14 09:43:39;;;;;;;28.30;18.95;;;5.70;99.90;;;;;;5011912;28;20021;-72
2022/11/14 09:46:22;;;;;;;28.55;19.05;;;5.70;99.90;;;;;;5011520;28;20025;-73
2022/11/14 09:48:50;;;;;;;27.85;18.27;;;5.80;99.90;;;;;;5012353;28;20567;-73
2022/11/14 09:51:20;;;;;;;32.33;20.80;;;5.90;99.90;;;;;;5003563;28;20112;-73
2022/11/14 09:54:05;;;;;;;28.33;18.80;;;6.00;99.90;;;;;;5007126;28;20121;-73
2022/11/14 09:56:30;;;;;;;31.80;22.83;;;6.00;99.90;;;;;;5009967;28;20488;-73
2022/11/14 09:58:56;;;;;;;28.50;19.77;;;6.00;99.90;;;;;;5009009;28;20036;-73
2022/11/14 10:01:40;;;;;;;36.30;23.17;;;6.10;99.90;;;;;;5011209;28;20057;-72
2022/11/14 10:04:42;;;;;;;32.40;21.80;;;6.10;99.90;;;;;;5005014;28;20029;-72
2022/11/14 10:07:14;;;;;;;35.30;21.95;;;6.20;99.90;;;;;;5022740;28;20040;-72
2022/11/14 10:09:50;;;;;;;33.90;21.83;;;6.20;99.90;;;;;;5016518;28;20066;-72
2022/11/14 10:12:35;;;;;;;32.25;21.08;;;6.30;99.90;;;;;;5013876;28;20026;-72
2022/11/14 10:15:19;;;;;;;31.52;20.45;;;6.30;99.90;;;;;;5023309;28;20033;-72
2022/11/14 10:18:03;;;;;;;30.73;20.00;;;6.30;99.90;;;;;;5020391;28;20404;-72
2022/11/14 10:20:45;;;;;;;31.27;19.88;;;6.40;99.90;;;;;;5016537;28;20489;-72
2022/11/14 10:24:07;;;;;;;30.30;18.80;;;6.40;99.90;;;;;;5009123;28;20041;-72
2022/11/14 10:26:38;;;;;;;29.27;18.48;;;6.50;99.90;;;;;;5037883;28;20029;-72
2022/11/14 10:29:16;;;;;;;29.33;18.50;;;6.50;99.90;;;;;;5042909;28;20050;-72
2022/11/14 10:32:23;;;;;;;31.40;21.15;;;6.50;99.90;;;;;;5022813;28;20141;-72
2022/11/14 10:35:10;;;;;;;30.23;20.92;;;6.60;99.90;;;;;;5007293;28;20057;-72
2022/11/14 10:37:48;;;;;;;32.70;21.35;;;6.60;99.90;;;;;;5024931;28;20057;-72
2022/11/14 10:40:22;;;;;;;34.20;22.13;;;6.70;99.90;;;;;;5009975;28;20033;-72
2022/11/14 10:42:53;;;;;;;33.55;21.85;;;6.70;99.90;;;;;;5008947;28;20060;-72
2022/11/14 10:45:28;;;;;;;32.85;20.52;;;6.70;99.90;;;;;;5008631;28;20022;-72
2022/11/14 10:47:58;;;;;;;29.77;19.38;;;6.70;99.90;;;;;;5022515;28;20087;-72
2022/11/14 10:50:33;;;;;;;28.08;19.13;;;6.70;99.90;;;;;;5014700;28;20045;-72
2022/11/14 10:53:02;;;;;;;27.08;18.45;;;6.80;99.90;;;;;;5014916;28;20026;-72
2022/11/14 10:55:28;;;;;;;33.05;20.42;;;6.80;99.90;;;;;;5008833;28;20060;-72
2022/11/14 10:57:53;;;;;;;29.55;20.35;;;6.90;99.90;;;;;;5021148;28;20481;-71
2022/11/14 11:00:23;;;;;;;29.10;19.90;;;6.90;99.90;;;;;;5017265;28;20481;-72
2022/11/14 11:02:55;;;;;;;27.27;18.63;;;7.00;99.90;;;;;;5008144;28;20040;-72
2022/11/14 11:05:24;;;;;;;28.83;18.67;;;7.10;99.90;;;;;;5008530;28;20112;-72
2022/11/14 11:13:33;;;;;;;25.20;17.75;;;7.40;99.90;;;;;;5025149;28;20059;-69
2022/11/14 11:16:02;;;;;;;31.38;19.30;;;7.60;99.90;;;;;;5022599;28;20037;-70
2022/11/14 11:18:33;;;;;;;25.08;18.45;;;7.80;99.90;;;;;;5024779;28;20057;-70
2022/11/14 11:21:11;;;;;;;28.13;20.08;;;8.00;99.90;;;;;;5020163;28;20354;-69
2022/11/14 11:23:56;;;;;;;27.63;19.13;;;8.20;99.90;;;;;;5013460;28;20148;-70
2022/11/14 11:26:30;;;;;;;30.30;21.05;;;8.40;99.90;;;;;;5025613;28;20579;-70
2022/11/14 11:29:11;;;;;;;27.20;18.15;;;8.60;99.90;;;;;;5027031;28;20033;-70
2022/11/14 11:31:46;;;;;;;26.67;18.60;;;8.70;99.90;;;;;;5013598;28;20111;-70
2022/11/14 11:34:11;;;;;;;35.63;25.33;;;8.80;99.90;;;;;;5016493;28;20506;-72
2022/11/14 11:36:42;;;;;;;28.80;21.65;;;8.90;99.90;;;;;;5012462;28;20034;-72
2022/11/14 11:39:21;;;;;;;31.42;23.17;;;9.00;99.90;;;;;;5009724;28;20033;-72
2022/11/14 11:41:48;;;;;;;43.70;32.63;;;9.00;99.90;;;;;;5008388;28;20030;-72
2022/11/14 11:44:17;;;;;;;30.83;20.85;;;9.10;99.90;;;;;;5015463;28;20087;-72
2022/11/14 11:46:54;;;;;;;26.90;20.23;;;9.20;99.90;;;;;;5013159;28;20467;-72
2022/11/14 11:49:39;;;;;;;29.27;20.63;;;9.20;99.90;;;;;;5026881;28;20051;-72
2022/11/14 11:52:31;;;;;;;26.77;19.30;;;9.20;99.90;;;;;;5008119;28;20026;-72
2022/11/14 11:55:08;;;;;;;28.27;19.25;;;9.30;99.90;;;;;;5011125;28;20360;-72
2022/11/14 11:57:41;;;;;;;29.20;20.83;;;9.30;99.90;;;;;;5020643;28;20081;-72
2022/11/14 12:00:20;;;;;;;24.70;18.02;;;9.30;99.90;;;;;;5010182;28;20080;-72
2022/11/14 12:02:48;;;;;;;32.17;23.23;;;9.40;99.90;;;;;;5011180;28;20489;-72
2022/11/14 12:05:37;;;;;;;29.67;20.55;;;9.40;99.90;;;;;;5023896;28;20042;-72
2022/11/14 12:08:09;;;;;;;25.38;19.15;;;9.50;99.90;;;;;;5023036;28;20131;-72
2022/11/14 12:10:40;;;;;;;24.45;17.40;;;9.60;99.90;;;;;;5016660;28;20033;-72
2022/11/14 12:13:38;;;;;;;24.77;18.52;;;9.70;99.90;;;;;;5019119;28;20468;-71
2022/11/14 12:16:41;;;;;;;24.23;17.25;;;9.80;99.90;;;;;;5019065;28;20051;-71
2022/11/14 12:19:40;;;;;;;23.33;17.08;;;9.90;99.90;;;;;;5021871;28;20038;-71
2022/11/14 12:22:30;;;;;;;25.10;18.38;;;10.00;99.90;;;;;;5009373;28;20033;-71
2022/11/14 12:25:17;;;;;;;19.00;14.70;;;10.10;99.90;;;;;;5003953;28;20042;-71
2022/11/14 12:28:06;;;;;;;18.75;14.25;;;10.20;99.90;;;;;;5015017;28;20121;-71
2022/11/14 12:30:34;;;;;;;21.80;15.73;;;10.30;99.90;;;;;;4671211;28;10000305;-71
2022/11/14 12:33:07;;;;;;;19.98;14.20;;;10.40;99.90;;;;;;5009987;28;20061;-71
2022/11/14 12:35:35;;;;;;;19.52;15.25;;;10.40;99.90;;;;;;5013038;28;20652;-72
2022/11/14 12:38:04;;;;;;;20.48;15.73;;;10.50;99.90;;;;;;5022427;28;20397;-72
2022/11/14 12:40:38;;;;;;;21.92;16.15;;;10.60;99.90;;;;;;5018456;28;20035;-72
2022/11/14 12:43:32;;;;;;;23.50;17.23;;;10.60;99.90;;;;;;5010732;28;20083;-72
2022/11/14 12:46:00;;;;;;;25.95;19.42;;;10.60;99.90;;;;;;5014633;28;20398;-71
2022/11/14 12:48:25;;;;;;;24.85;18.38;;;10.70;99.90;;;;;;5014166;28;20654;-72
2022/11/14 12:50:56;;;;;;;27.92;18.83;;;10.70;99.90;;;;;;5012665;28;20292;-72
2022/11/14 12:53:37;;;;;;;23.63;17.73;;;10.70;99.90;;;;;;5017332;28;20105;-72